Aérodrome :
LOGIN :

S'inscrire | Disclaimer

   EN    FR    IT 

 










Légende :    VFR   VFR Marginal   IFR   IFR Intensif   IFR Très Intensif
Visi : 
Plafond : 
>= 8 km
>= 3000ft
5 à 8 km
1000 à 3000 ft
1500m à 5 km
500 à 1000 ft
800 à 1500m
200 à 500 ft
< 800m
< 200 ft
Symboles :   Orages  Brouillard  Fortes neiges  Fortes précipitations  Vent > 20 kt
SIGMETs :   Divers  Orages  Givrage  Turbulence  Onde Orograph.  Cendres Volcan.






- Altitude de l'aérodrome : 16 ft
- Code IATA : SDR


LEXJ - Santander Cantabria

DERNIER METAR :
  • 140100Z AUTO 30015KT 270V360 3900 RA BR SCT029 BKN037 BKN043 09/07 Q1005

METARs EXPIRÉS :
  • 140030Z AUTO 29015G27KT 250V340 4200 RA BR FEW020 BKN040 BKN047 09/07 Q1005
  • 140000Z AUTO 30013KT 260V340 5000 RA BR BKN040 BKN047 10/08 Q1004
  • 132330Z AUTO 30016G27KT 3100 RA BR FEW021 SCT033 BKN041 10/08 Q1005
  • 132300Z 30018G34KT 280V340 4000 -RA SCT018 BKN035 11/08 Q1005
  • 132230Z 31021G31KT 280V340 5000 -RA SCT020 BKN035 11/09 Q1005

TAF TAF LEXJ
Valide du 13 à 21h jusqu'au 14 à 21h UTC


132000Z 1321/1421 27010KT 9999 SCT020 BKN045 TX13/1414Z TN07/1403Z
TEMPO 1321/1409 27015G30KT
TEMPO 1321/1406 27020G35KT
PROB40
TEMPO 1321/1403 27020G43KT
BECMG 1406/1408 18010KT
TEMPO 1321/1409 3000 RA SHRA SCT030TCU
PROB40
TEMPO 1400/1406 3000 TSRA BKN035CB
TEMPO 1412/1421 3000 RA SHRA BKN010 SCT020TCU



MET'MAP, la Météo Aéronautique d'un coup d'oeil ! - Copyright ORBIFLY Décembre 2007 - Disclaimer

ORBIFLY MET'MAP TEAM :

Programmation & Développement : Alexandra Zaïnal
Conception & Développement : Baudouin d'Aumeries
Co-Programmation & Développement : Marc-Olivier Méhu
Soutien technique & logistique : Manuel Goepfert

Contact : metmap@orbifly.com




SOURCES & CREDITS :

   NOAA